Time;durP1;ratioP1;P1;durP2;ratioP2;P2;SDS_P1;SDS_P2;PMS_P1;PMS_P2;Temp;Humidity;BMP_temperature;BMP_pressure;BME280_temperature;BME280_humidity;BME280_pressure;Samples;Min_cycle;Max_cycle;Signal;HPM_P1;HPM_P2
2023/10/24 00:01:12;;;;;;;3.93;2.80;;;;;;;;;;5054611;28;20211;-63
2023/10/24 00:03:40;;;;;;;3.17;2.47;;;;;;;;;;5049558;28;20203;-63
2023/10/24 00:06:07;;;;;;;3.00;2.50;;;;;;;;;;5055827;28;20294;-64
2023/10/24 00:08:34;;;;;;;5.03;2.45;;;;;;;;;;5049410;28;20234;-64
2023/10/24 00:11:01;;;;;;;3.73;2.73;;;;;;;;;;5052552;28;20202;-65
2023/10/24 00:13:28;;;;;;;3.37;2.33;;;;;;;;;;5052930;28;20207;-64
2023/10/24 00:15:58;;;;;;;3.03;2.30;;;;;;;;;;5048962;28;20207;-64
2023/10/24 00:18:25;;;;;;;2.30;2.07;;;;;;;;;;5052331;28;20199;-64
2023/10/24 00:20:53;;;;;;;2.47;1.90;;;;;;;;;;5051046;28;20203;-64
2023/10/24 00:23:20;;;;;;;3.80;2.00;;;;;;;;;;5056381;28;20220;-64
2023/10/24 00:25:47;;;;;;;2.33;1.77;;;;;;;;;;5053200;28;20294;-64
2023/10/24 00:28:14;;;;;;;2.57;1.70;;;;;;;;;;5054705;28;20203;-64
2023/10/24 00:30:41;;;;;;;1.97;1.87;;;;;;;;;;5052757;28;20207;-64
2023/10/24 00:33:10;;;;;;;2.13;1.93;;;;;;;;;;5052838;28;20202;-63
2023/10/24 00:35:37;;;;;;;2.33;1.70;;;;;;;;;;5050862;28;20210;-64
2023/10/24 00:38:04;;;;;;;2.07;1.73;;;;;;;;;;5051367;28;20241;-63
2023/10/24 00:40:33;;;;;;;2.00;1.53;;;;;;;;;;5053709;28;20196;-64
2023/10/24 00:43:04;;;;;;;2.00;1.53;;;;;;;;;;5050203;28;20223;-64
2023/10/24 00:45:31;;;;;;;2.57;1.50;;;;;;;;;;5047070;28;20215;-64
2023/10/24 00:47:58;;;;;;;2.80;1.70;;;;;;;;;;5056584;28;20209;-63
2023/10/24 00:50:27;;;;;;;2.30;1.50;;;;;;;;;;5052118;28;20200;-64
2023/10/24 00:52:54;;;;;;;1.50;1.20;;;;;;;;;;5048174;28;20202;-64
2023/10/24 00:55:22;;;;;;;1.97;1.40;;;;;;;;;;5053508;28;20210;-63
2023/10/24 00:57:50;;;;;;;1.63;1.30;;;;;;;;;;5055510;28;20207;-64
2023/10/24 01:00:17;;;;;;;3.33;1.30;;;;;;;;;;5049603;28;20199;-63
2023/10/24 01:02:44;;;;;;;1.80;1.30;;;;;;;;;;5052344;28;20230;-64
2023/10/24 01:05:12;;;;;;;2.03;1.30;;;;;;;;;;5057875;28;20210;-64
2023/10/24 01:07:40;;;;;;;1.67;1.10;;;;;;;;;;5054386;28;20199;-64
2023/10/24 01:10:09;;;;;;;2.50;1.30;;;;;;;;;;5052437;28;20203;-64
2023/10/24 01:12:36;;;;;;;1.00;1.00;;;;;;;;;;5051060;28;20200;-64
2023/10/24 01:15:04;;;;;;;2.90;1.40;;;;;;;;;;5051123;28;20292;-65
2023/10/24 01:17:31;;;;;;;2.23;1.20;;;;;;;;;;5054177;28;20196;-64
2023/10/24 01:19:58;;;;;;;1.30;1.20;;;;;;;;;;5051734;28;20207;-65
2023/10/24 01:22:27;;;;;;;2.80;1.20;;;;;;;;;;5050992;28;20226;-64
2023/10/24 01:24:54;;;;;;;1.00;1.00;;;;;;;;;;5052687;28;20203;-64
2023/10/24 01:27:22;;;;;;;1.30;1.20;;;;;;;;;;5053759;28;20278;-64
2023/10/24 01:29:49;;;;;;;1.30;1.20;;;;;;;;;;5049235;28;20198;-64
2023/10/24 01:32:16;;;;;;;1.43;1.30;;;;;;;;;;5050833;28;20198;-64
2023/10/24 01:34:43;;;;;;;1.47;1.37;;;;;;;;;;5047852;28;20204;-64
2023/10/24 01:37:10;;;;;;;2.43;1.43;;;;;;;;;;5050553;28;20238;-64
2023/10/24 01:39:39;;;;;;;1.50;1.40;;;;;;;;;;5050364;28;20203;-64
2023/10/24 01:42:06;;;;;;;2.70;1.40;;;;;;;;;;5050755;28;20219;-64
2023/10/24 01:44:33;;;;;;;2.00;1.70;;;;;;;;;;5047935;28;20205;-64
2023/10/24 01:47:00;;;;;;;1.73;1.40;;;;;;;;;;5051673;28;20206;-64
2023/10/24 01:49:27;;;;;;;1.70;1.50;;;;;;;;;;5050686;28;20207;-65
2023/10/24 01:51:54;;;;;;;1.83;1.73;;;;;;;;;;5051082;28;20204;-64
2023/10/24 01:54:22;;;;;;;1.93;1.70;;;;;;;;;;5049236;28;20324;-64
2023/10/24 01:56:50;;;;;;;1.87;1.37;;;;;;;;;;5054512;28;20206;-64
2023/10/24 01:59:17;;;;;;;3.50;1.30;;;;;;;;;;5047600;28;20207;-64
2023/10/24 02:01:44;;;;;;;1.30;1.20;;;;;;;;;;5048781;28;20203;-64
2023/10/24 02:04:11;;;;;;;3.27;1.40;;;;;;;;;;5048522;28;20849;-64
2023/10/24 02:06:38;;;;;;;2.43;1.20;;;;;;;;;;5054152;28;20210;-64
2023/10/24 02:09:06;;;;;;;1.40;1.30;;;;;;;;;;5056186;28;20202;-65
2023/10/24 02:11:33;;;;;;;0.97;0.93;;;;;;;;;;5051011;28;20212;-65
2023/10/24 02:14:01;;;;;;;1.30;1.20;;;;;;;;;;5049098;28;20200;-63
2023/10/24 02:16:28;;;;;;;1.27;1.10;;;;;;;;;;5048766;28;20203;-69
2023/10/24 02:18:55;;;;;;;1.20;1.20;;;;;;;;;;5049234;28;20206;-69
2023/10/24 02:21:22;;;;;;;1.27;1.17;;;;;;;;;;5050211;28;20217;-69
2023/10/24 02:23:51;;;;;;;1.40;1.30;;;;;;;;;;5054468;28;20231;-68
2023/10/24 02:26:18;;;;;;;1.80;1.20;;;;;;;;;;5047658;28;20203;-70
2023/10/24 02:28:45;;;;;;;1.63;1.20;;;;;;;;;;5058066;28;20209;-69
2023/10/24 02:31:14;;;;;;;1.20;1.20;;;;;;;;;;5044862;28;20221;-68
2023/10/24 02:33:41;;;;;;;2.30;1.10;;;;;;;;;;5053606;28;20196;-70
2023/10/24 02:36:09;;;;;;;1.00;1.00;;;;;;;;;;5053398;28;20239;-69
2023/10/24 02:38:36;;;;;;;1.50;1.40;;;;;;;;;;5050642;28;20221;-69
2023/10/24 02:41:03;;;;;;;1.73;1.03;;;;;;;;;;5051181;28;20207;-69
2023/10/24 02:43:30;;;;;;;1.00;1.00;;;;;;;;;;5045995;28;20231;-69
2023/10/24 02:46:02;;;;;;;2.60;1.50;;;;;;;;;;5052150;28;20211;-69
2023/10/24 02:48:31;;;;;;;1.90;1.00;;;;;;;;;;5054149;28;20203;-69
2023/10/24 02:50:58;;;;;;;1.53;1.07;;;;;;;;;;5048420;28;20200;-68
2023/10/24 02:53:26;;;;;;;2.10;1.00;;;;;;;;;;5047365;28;20223;-69
2023/10/24 02:55:53;;;;;;;1.20;1.00;;;;;;;;;;5056907;28;20203;-69
2023/10/24 02:58:20;;;;;;;1.03;0.93;;;;;;;;;;5054978;28;20208;-70
2023/10/24 03:00:47;;;;;;;1.17;1.00;;;;;;;;;;5051888;28;20203;-69
2023/10/24 03:03:14;;;;;;;1.90;0.93;;;;;;;;;;5049673;28;20219;-69
2023/10/24 03:05:43;;;;;;;1.40;1.30;;;;;;;;;;5048526;28;20206;-69
2023/10/24 03:08:10;;;;;;;1.57;1.10;;;;;;;;;;5046031;28;20203;-69
2023/10/24 03:10:40;;;;;;;1.83;1.20;;;;;;;;;;5050312;28;20195;-69
2023/10/24 03:13:08;;;;;;;2.33;1.00;;;;;;;;;;5047348;28;20199;-69
2023/10/24 03:15:36;;;;;;;1.17;0.93;;;;;;;;;;5044334;28;20210;-69
2023/10/24 03:18:03;;;;;;;1.10;1.00;;;;;;;;;;5050218;28;20204;-68
2023/10/24 03:20:30;;;;;;;1.70;1.30;;;;;;;;;;5050155;28;20204;-69
2023/10/24 03:22:58;;;;;;;1.23;1.13;;;;;;;;;;5051209;28;20227;-69
2023/10/24 03:25:25;;;;;;;2.37;1.10;;;;;;;;;;5049068;28;20203;-64
2023/10/24 03:27:53;;;;;;;1.03;1.00;;;;;;;;;;5050667;28;20203;-63
2023/10/24 03:30:21;;;;;;;2.40;1.30;;;;;;;;;;5052588;28;20253;-64
2023/10/24 03:32:48;;;;;;;3.47;1.30;;;;;;;;;;5053477;28;20199;-64
2023/10/24 03:35:16;;;;;;;1.80;1.37;;;;;;;;;;5052019;28;20452;-63
2023/10/24 03:37:43;;;;;;;2.30;1.30;;;;;;;;;;5054160;28;20227;-64
2023/10/24 03:40:12;;;;;;;1.10;1.10;;;;;;;;;;5055735;28;20283;-64
2023/10/24 03:42:39;;;;;;;1.40;1.30;;;;;;;;;;5055085;28;20234;-63
2023/10/24 03:45:07;;;;;;;1.83;1.10;;;;;;;;;;5050643;28;20203;-64
2023/10/24 03:47:34;;;;;;;1.10;1.10;;;;;;;;;;5053780;28;20202;-63
2023/10/24 03:50:01;;;;;;;3.57;1.43;;;;;;;;;;5059467;28;20206;-63
2023/10/24 03:52:28;;;;;;;2.07;1.00;;;;;;;;;;5057310;28;20210;-64
2023/10/24 03:54:55;;;;;;;1.20;1.00;;;;;;;;;;5052346;28;20214;-64
2023/10/24 03:57:24;;;;;;;2.10;1.00;;;;;;;;;;5051216;28;20212;-63
2023/10/24 03:59:51;;;;;;;2.23;1.10;;;;;;;;;;5052202;28;20208;-63
2023/10/24 04:02:18;;;;;;;2.60;1.20;;;;;;;;;;5056710;28;20286;-63
2023/10/24 04:04:45;;;;;;;2.60;1.90;;;;;;;;;;5048745;28;20203;-64
2023/10/24 04:07:12;;;;;;;1.17;1.07;;;;;;;;;;5055147;28;20210;-64
2023/10/24 04:09:39;;;;;;;0.90;0.90;;;;;;;;;;5053763;28;20199;-64
2023/10/24 04:12:07;;;;;;;0.87;0.87;;;;;;;;;;5054205;28;20229;-64
2023/10/24 04:14:35;;;;;;;0.90;0.80;;;;;;;;;;5052886;28;20211;-64
2023/10/24 04:17:02;;;;;;;2.40;0.93;;;;;;;;;;5050551;28;20207;-63
2023/10/24 04:19:30;;;;;;;1.33;1.00;;;;;;;;;;5050070;28;20199;-63
2023/10/24 04:21:57;;;;;;;1.73;1.07;;;;;;;;;;5055281;28;20195;-63
2023/10/24 04:24:24;;;;;;;1.50;0.93;;;;;;;;;;5056648;28;20223;-64
2023/10/24 04:26:51;;;;;;;2.23;0.80;;;;;;;;;;5055860;28;20214;-63
2023/10/24 04:29:18;;;;;;;4.37;1.00;;;;;;;;;;5050773;28;20191;-63
2023/10/24 04:31:46;;;;;;;1.97;1.20;;;;;;;;;;5054452;28;20207;-65
2023/10/24 04:34:13;;;;;;;1.60;1.23;;;;;;;;;;5049650;28;20230;-64
2023/10/24 04:36:41;;;;;;;1.67;1.20;;;;;;;;;;5052516;28;20234;-64
2023/10/24 04:39:08;;;;;;;4.03;2.30;;;;;;;;;;5056109;28;20395;-64
2023/10/24 04:41:35;;;;;;;2.20;1.60;;;;;;;;;;5053158;28;20204;-64
2023/10/24 04:44:02;;;;;;;1.97;1.20;;;;;;;;;;5056505;28;20227;-64
2023/10/24 04:46:30;;;;;;;1.23;0.93;;;;;;;;;;5048492;28;20195;-63
2023/10/24 04:48:58;;;;;;;1.13;0.93;;;;;;;;;;5055060;28;20201;-64
2023/10/24 04:51:25;;;;;;;2.17;0.97;;;;;;;;;;5051567;28;20200;-64
2023/10/24 04:53:52;;;;;;;1.97;1.13;;;;;;;;;;5054706;28;20196;-64
2023/10/24 04:56:19;;;;;;;2.00;0.93;;;;;;;;;;5053524;28;20204;-64
2023/10/24 04:58:46;;;;;;;1.40;0.80;;;;;;;;;;5050497;28;20211;-64
2023/10/24 05:01:14;;;;;;;1.83;0.90;;;;;;;;;;5049706;28;20203;-64
2023/10/24 05:03:41;;;;;;;1.30;1.10;;;;;;;;;;5053542;28;20234;-64
2023/10/24 05:06:10;;;;;;;1.30;1.20;;;;;;;;;;5053436;28;20205;-65
2023/10/24 05:08:37;;;;;;;2.37;1.87;;;;;;;;;;5056120;28;20260;-64
2023/10/24 05:11:04;;;;;;;1.63;1.40;;;;;;;;;;5051091;28;20207;-64
2023/10/24 05:13:31;;;;;;;1.80;1.53;;;;;;;;;;5046433;28;20198;-64
2023/10/24 05:15:58;;;;;;;1.00;1.00;;;;;;;;;;5050597;28;20199;-65
2023/10/24 05:18:26;;;;;;;1.00;0.90;;;;;;;;;;5047561;28;20273;-64
2023/10/24 05:20:53;;;;;;;2.47;1.03;;;;;;;;;;5051463;28;20204;-64
2023/10/24 05:23:21;;;;;;;1.00;1.00;;;;;;;;;;5049053;28;20219;-64
2023/10/24 05:25:49;;;;;;;1.40;1.10;;;;;;;;;;5051814;28;20200;-65
2023/10/24 05:28:16;;;;;;;1.57;1.07;;;;;;;;;;5050844;28;20195;-64
2023/10/24 05:30:44;;;;;;;1.40;1.30;;;;;;;;;;5049203;28;20210;-64
2023/10/24 05:33:11;;;;;;;2.07;1.20;;;;;;;;;;5045357;28;20263;-64
2023/10/24 05:35:38;;;;;;;2.10;1.30;;;;;;;;;;5048473;28;20227;-65
2023/10/24 05:38:05;;;;;;;2.13;1.20;;;;;;;;;;5047366;28;20227;-65
2023/10/24 05:40:33;;;;;;;3.23;1.97;;;;;;;;;;5048682;28;20317;-63
2023/10/24 05:43:15;;;;;;;3.00;2.00;;;;;;;;;;5015511;28;20259;-63
2023/10/24 05:45:43;;;;;;;2.93;2.30;;;;;;;;;;5048823;28;20202;-68
2023/10/24 05:48:10;;;;;;;2.60;2.30;;;;;;;;;;5044404;28;20210;-68
2023/10/24 05:50:39;;;;;;;3.90;1.90;;;;;;;;;;5048089;28;20217;-68
2023/10/24 05:53:06;;;;;;;2.70;1.40;;;;;;;;;;5046444;28;20208;-68
2023/10/24 05:55:35;;;;;;;1.60;1.37;;;;;;;;;;5049197;28;20204;-68
2023/10/24 05:58:02;;;;;;;1.77;1.20;;;;;;;;;;5044465;28;20210;-68
2023/10/24 06:00:29;;;;;;;1.93;1.40;;;;;;;;;;5043316;28;20202;-68
2023/10/24 06:02:57;;;;;;;2.17;1.47;;;;;;;;;;5038837;28;20226;-68
2023/10/24 06:05:24;;;;;;;1.77;1.30;;;;;;;;;;5039752;28;20215;-68
2023/10/24 06:07:51;;;;;;;1.53;1.43;;;;;;;;;;5043221;28;20203;-68
2023/10/24 06:10:18;;;;;;;1.50;1.40;;;;;;;;;;5043611;28;20234;-68
2023/10/24 06:12:47;;;;;;;2.20;1.60;;;;;;;;;;5046901;28;20195;-68
2023/10/24 06:15:14;;;;;;;2.40;1.40;;;;;;;;;;5043641;28;20267;-68
2023/10/24 06:17:41;;;;;;;1.50;1.40;;;;;;;;;;5042883;28;20306;-68
2023/10/24 06:20:09;;;;;;;1.80;1.40;;;;;;;;;;5042956;28;20208;-67
2023/10/24 06:22:36;;;;;;;1.47;1.30;;;;;;;;;;5045686;28;20200;-68
2023/10/24 06:25:03;;;;;;;1.50;1.40;;;;;;;;;;5045165;28;20224;-68
2023/10/24 06:27:30;;;;;;;2.73;1.53;;;;;;;;;;5041622;28;20225;-68
2023/10/24 06:29:58;;;;;;;1.97;1.77;;;;;;;;;;5041321;28;20199;-68
2023/10/24 06:32:27;;;;;;;5.03;3.60;;;;;;;;;;5047294;28;20198;-68
2023/10/24 06:34:54;;;;;;;4.07;3.13;;;;;;;;;;5042718;28;20317;-68
2023/10/24 06:37:21;;;;;;;2.77;2.33;;;;;;;;;;5044634;28;20238;-69
2023/10/24 06:39:48;;;;;;;1.90;1.80;;;;;;;;;;5046502;28;20209;-68
2023/10/24 06:42:16;;;;;;;2.50;1.70;;;;;;;;;;5045010;28;20203;-68
2023/10/24 06:44:43;;;;;;;1.43;1.33;;;;;;;;;;5042994;28;20216;-68
2023/10/24 06:47:11;;;;;;;1.40;1.30;;;;;;;;;;5040504;28;20199;-68
2023/10/24 06:49:38;;;;;;;2.90;1.20;;;;;;;;;;5043941;28;20214;-69
2023/10/24 06:52:06;;;;;;;1.97;1.20;;;;;;;;;;5044453;28;20217;-69
2023/10/24 06:54:33;;;;;;;1.47;1.30;;;;;;;;;;5043115;28;20199;-68
2023/10/24 06:57:00;;;;;;;2.80;1.10;;;;;;;;;;5042461;28;20210;-64
2023/10/24 06:59:29;;;;;;;2.03;1.50;;;;;;;;;;5046341;28;20236;-64
2023/10/24 07:01:56;;;;;;;2.00;1.10;;;;;;;;;;5038570;28;20225;-64
2023/10/24 07:04:25;;;;;;;2.03;1.23;;;;;;;;;;5040514;28;20227;-64
2023/10/24 07:06:52;;;;;;;1.40;1.10;;;;;;;;;;5045306;28;20217;-64
2023/10/24 07:09:19;;;;;;;1.50;1.13;;;;;;;;;;5044566;28;20202;-64
2023/10/24 07:11:46;;;;;;;1.50;1.20;;;;;;;;;;5047434;28;20203;-64
2023/10/24 07:14:14;;;;;;;1.97;1.10;;;;;;;;;;5046466;28;20195;-64
2023/10/24 07:16:41;;;;;;;2.07;1.10;;;;;;;;;;5051760;28;20234;-64
2023/10/24 07:19:09;;;;;;;1.40;1.10;;;;;;;;;;5050724;28;20215;-64
2023/10/24 07:21:38;;;;;;;1.03;1.00;;;;;;;;;;5051337;28;20265;-64
2023/10/24 07:24:05;;;;;;;3.63;1.37;;;;;;;;;;5053193;28;20223;-64
2023/10/24 07:26:32;;;;;;;4.30;1.40;;;;;;;;;;5053654;28;20195;-64
2023/10/24 07:28:59;;;;;;;1.30;1.17;;;;;;;;;;5053597;28;20199;-65
2023/10/24 07:31:27;;;;;;;1.83;1.20;;;;;;;;;;5053406;28;20210;-64
2023/10/24 07:33:54;;;;;;;1.10;1.00;;;;;;;;;;5053225;28;20207;-64
2023/10/24 07:36:21;;;;;;;1.27;1.13;;;;;;;;;;5054104;28;20242;-65
2023/10/24 07:38:50;;;;;;;4.00;1.00;;;;;;;;;;5053278;28;20222;-65
2023/10/24 07:41:17;;;;;;;1.20;1.00;;;;;;;;;;5052824;28;20199;-65
2023/10/24 07:43:45;;;;;;;1.30;1.20;;;;;;;;;;5053503;28;20555;-65
2023/10/24 07:46:12;;;;;;;1.20;1.10;;;;;;;;;;5053056;28;20207;-65
2023/10/24 07:48:39;;;;;;;1.13;1.03;;;;;;;;;;5053716;28;20207;-65
2023/10/24 07:51:06;;;;;;;2.70;1.40;;;;;;;;;;5050928;28;20199;-65
2023/10/24 07:53:33;;;;;;;1.13;1.03;;;;;;;;;;5048882;28;20195;-65
2023/10/24 07:56:05;;;;;;;2.40;1.20;;;;;;;;;;5052344;28;20206;-65
2023/10/24 07:58:32;;;;;;;1.07;1.03;;;;;;;;;;5048925;28;20203;-65
2023/10/24 08:01:00;;;;;;;1.87;1.00;;;;;;;;;;5048700;28;20204;-65
2023/10/24 08:03:27;;;;;;;1.80;1.20;;;;;;;;;;5048404;28;20211;-65
2023/10/24 08:05:54;;;;;;;1.90;1.13;;;;;;;;;;5050389;28;20227;-70
2023/10/24 08:08:21;;;;;;;1.50;1.00;;;;;;;;;;5051618;28;20205;-70
2023/10/24 08:10:48;;;;;;;1.63;1.10;;;;;;;;;;5045967;28;20208;-70
2023/10/24 08:13:17;;;;;;;3.87;1.20;;;;;;;;;;5050511;28;20203;-70
2023/10/24 08:15:48;;;;;;;1.80;1.10;;;;;;;;;;5050366;28;20202;-70
2023/10/24 08:18:15;;;;;;;1.53;1.10;;;;;;;;;;5049927;28;20396;-70
2023/10/24 08:20:42;;;;;;;2.53;1.10;;;;;;;;;;5050202;28;20199;-70
2023/10/24 08:23:09;;;;;;;2.23;1.20;;;;;;;;;;5048387;28;20207;-70
2023/10/24 08:25:36;;;;;;;2.23;1.10;;;;;;;;;;5045567;28;20223;-70
2023/10/24 08:28:03;;;;;;;1.77;1.13;;;;;;;;;;5051610;28;20211;-70
2023/10/24 08:30:32;;;;;;;1.50;1.10;;;;;;;;;;5051145;28;20214;-70
2023/10/24 08:32:59;;;;;;;1.00;1.00;;;;;;;;;;5051779;28;20214;-70
2023/10/24 08:35:26;;;;;;;1.80;1.20;;;;;;;;;;5049168;28;20214;-70
2023/10/24 08:37:53;;;;;;;1.43;1.03;;;;;;;;;;5049499;28;20242;-70
2023/10/24 08:40:21;;;;;;;1.40;1.30;;;;;;;;;;5052489;28;20199;-69
2023/10/24 08:42:48;;;;;;;1.00;0.90;;;;;;;;;;5049792;28;20208;-69
2023/10/24 08:45:18;;;;;;;2.53;1.20;;;;;;;;;;5048676;28;20230;-69
2023/10/24 08:47:47;;;;;;;1.33;1.00;;;;;;;;;;5049888;28;20206;-69
2023/10/24 08:50:14;;;;;;;2.10;1.13;;;;;;;;;;5050221;28;20239;-69
2023/10/24 08:52:41;;;;;;;2.37;0.90;;;;;;;;;;5050375;28;20207;-68
2023/10/24 08:55:09;;;;;;;0.90;0.90;;;;;;;;;;5049640;28;20203;-69
2023/10/24 08:57:39;;;;;;;1.60;1.13;;;;;;;;;;5049893;28;20211;-68
2023/10/24 09:00:10;;;;;;;1.10;1.00;;;;;;;;;;5048837;28;20254;-69
2023/10/24 09:02:38;;;;;;;2.43;1.03;;;;;;;;;;5048665;28;20207;-69
2023/10/24 09:05:08;;;;;;;2.53;1.20;;;;;;;;;;5051597;28;20513;-69
2023/10/24 09:07:36;;;;;;;1.30;1.20;;;;;;;;;;5052428;28;20204;-69
2023/10/24 09:10:04;;;;;;;1.87;1.03;;;;;;;;;;5053195;28;20212;-68
2023/10/24 09:12:30;;;;;;;1.90;1.00;;;;;;;;;;5050330;28;20206;-69
2023/10/24 09:14:58;;;;;;;1.70;1.10;;;;;;;;;;5051271;28;20291;-68
2023/10/24 09:17:26;;;;;;;2.70;1.00;;;;;;;;;;5052238;28;20210;-64
2023/10/24 09:19:53;;;;;;;3.03;1.50;;;;;;;;;;5050597;28;20219;-64
2023/10/24 09:22:22;;;;;;;2.23;1.10;;;;;;;;;;5048587;28;20210;-63
2023/10/24 09:24:49;;;;;;;1.97;1.13;;;;;;;;;;5047592;28;20492;-64
2023/10/24 09:27:17;;;;;;;3.17;1.17;;;;;;;;;;5050055;28;20209;-63
2023/10/24 09:29:44;;;;;;;2.73;1.20;;;;;;;;;;5045395;28;20204;-65
2023/10/24 09:32:16;;;;;;;2.43;1.23;;;;;;;;;;5047484;28;20203;-64
2023/10/24 09:34:43;;;;;;;3.47;1.60;;;;;;;;;;5049156;28;20196;-64
2023/10/24 09:37:13;;;;;;;1.90;1.70;;;;;;;;;;5044415;28;20318;-64
2023/10/24 09:39:55;;;;;;;4.03;1.70;;;;;;;;;;5048173;28;20211;-65
2023/10/24 09:42:25;;;;;;;3.33;2.30;;;;;;;;;;5046055;28;20200;-63
2023/10/24 09:44:52;;;;;;;3.40;1.80;;;;;;;;;;5046327;28;20230;-65
2023/10/24 09:47:19;;;;;;;4.30;2.87;;;;;;;;;;5044631;28;20246;-63
2023/10/24 09:49:47;;;;;;;4.33;2.97;;;;;;;;;;5048508;28;20203;-64
2023/10/24 09:52:15;;;;;;;3.17;2.80;;;;;;;;;;5047905;28;20203;-65
2023/10/24 09:54:43;;;;;;;5.13;3.00;;;;;;;;;;5047141;28;20202;-64
2023/10/24 09:57:11;;;;;;;4.97;3.10;;;;;;;;;;5049814;28;20216;-65
2023/10/24 09:59:39;;;;;;;3.10;2.50;;;;;;;;;;5046573;28;20200;-64
2023/10/24 10:02:06;;;;;;;3.90;3.20;;;;;;;;;;5046701;28;20210;-63
2023/10/24 10:04:34;;;;;;;5.33;3.60;;;;;;;;;;5050999;28;20208;-64
2023/10/24 10:07:02;;;;;;;3.20;2.90;;;;;;;;;;5047415;28;20204;-65
2023/10/24 10:09:30;;;;;;;6.07;4.23;;;;;;;;;;5048766;28;20219;-64
2023/10/24 10:12:02;;;;;;;5.43;3.95;;;;;;;;;;5046447;28;20203;-65
2023/10/24 10:14:35;;;;;;;4.57;4.00;;;;;;;;;;5047801;28;20294;-65
2023/10/24 10:17:08;;;;;;;4.57;3.37;;;;;;;;;;5046014;28;20214;-65
2023/10/24 10:19:46;;;;;;;5.13;3.10;;;;;;;;;;5042252;28;20210;-65
2023/10/24 10:22:21;;;;;;;4.20;3.40;;;;;;;;;;5046661;28;20200;-65
2023/10/24 10:24:57;;;;;;;3.43;3.13;;;;;;;;;;5050138;28;20209;-65
2023/10/24 10:27:30;;;;;;;4.00;3.13;;;;;;;;;;5048697;28;20217;-65
2023/10/24 10:30:04;;;;;;;4.87;3.67;;;;;;;;;;5049082;28;20214;-64
2023/10/24 10:32:38;;;;;;;6.37;4.20;;;;;;;;;;5049417;28;20210;-63
2023/10/24 10:35:05;;;;;;;4.33;3.80;;;;;;;;;;5049932;28;20214;-64
2023/10/24 10:37:34;;;;;;;4.47;3.80;;;;;;;;;;5050280;28;20325;-64
2023/10/24 10:40:17;;;;;;;6.80;4.50;;;;;;;;;;5053290;28;20207;-63
2023/10/24 10:42:48;;;;;;;4.13;3.80;;;;;;;;;;5042615;28;20206;-64
2023/10/24 10:45:26;;;;;;;4.33;3.63;;;;;;;;;;5055931;28;20227;-63
2023/10/24 10:47:53;;;;;;;5.60;3.60;;;;;;;;;;5056611;28;20214;-63
2023/10/24 10:50:24;;;;;;;4.00;3.70;;;;;;;;;;5056593;28;20229;-64
2023/10/24 10:52:53;;;;;;;5.00;4.10;;;;;;;;;;5049646;28;20258;-63
2023/10/24 10:55:41;;;;;;;3.87;3.57;;;;;;;;;;5052568;28;20195;-63
2023/10/24 10:58:17;;;;;;;3.93;3.50;;;;;;;;;;5051117;28;20229;-63
2023/10/24 11:00:50;;;;;;;5.87;3.80;;;;;;;;;;5050788;28;20198;-63
2023/10/24 11:03:29;;;;;;;4.97;4.00;;;;;;;;;;5053940;28;20207;-63
2023/10/24 11:05:56;;;;;;;5.10;4.10;;;;;;;;;;5055138;28;20232;-63
2023/10/24 11:08:24;;;;;;;4.00;3.60;;;;;;;;;;5057778;28;20209;-64
2023/10/24 11:10:52;;;;;;;4.43;3.93;;;;;;;;;;5058347;28;20203;-64
2023/10/24 11:13:32;;;;;;;4.00;3.67;;;;;;;;;;5055880;28;20209;-64
2023/10/24 11:16:02;;;;;;;4.90;3.72;;;;;;;;;;5051320;28;20214;-64
2023/10/24 11:18:30;;;;;;;5.17;3.97;;;;;;;;;;5054166;28;20207;-64
2023/10/24 11:20:58;;;;;;;3.60;3.30;;;;;;;;;;5057810;28;20210;-64
2023/10/24 11:23:25;;;;;;;3.90;3.00;;;;;;;;;;5052640;28;21383;-63
2023/10/24 11:25:52;;;;;;;4.57;3.60;;;;;;;;;;5054943;28;20227;-64
2023/10/24 11:28:20;;;;;;;7.03;3.90;;;;;;;;;;5056994;28;20208;-63
2023/10/24 11:30:48;;;;;;;6.47;4.53;;;;;;;;;;5054236;28;20303;-64
2023/10/24 11:33:18;;;;;;;2.55;2.35;;;;;;;;;;5056767;28;20290;-63
2023/10/24 11:35:46;;;;;;;1.10;1.00;;;;;;;;;;5056451;28;20207;-63
2023/10/24 11:38:14;;;;;;;1.17;0.90;;;;;;;;;;5057284;28;20211;-63
2023/10/24 11:40:41;;;;;;;0.50;0.50;;;;;;;;;;5052180;28;20250;-63
2023/10/24 11:43:09;;;;;;;1.20;1.10;;;;;;;;;;5059040;28;20208;-63
2023/10/24 11:45:37;;;;;;;0.70;0.70;;;;;;;;;;5055970;28;20234;-64
2023/10/24 11:48:04;;;;;;;0.70;0.70;;;;;;;;;;5055841;28;20298;-64
2023/10/24 11:50:43;;;;;;;0.73;0.63;;;;;;;;;;5056770;28;20294;-63
2023/10/24 11:53:11;;;;;;;0.70;0.70;;;;;;;;;;5055035;28;20264;-63
2023/10/24 11:55:38;;;;;;;1.50;0.70;;;;;;;;;;5055366;28;20203;-63
2023/10/24 11:58:08;;;;;;;0.53;0.53;;;;;;;;;;5054022;28;20205;-63
2023/10/24 12:00:35;;;;;;;1.07;1.00;;;;;;;;;;5053204;28;20206;-63
2023/10/24 12:03:03;;;;;;;1.45;0.77;;;;;;;;;;5052341;28;20206;-64
2023/10/24 12:05:31;;;;;;;0.75;0.70;;;;;;;;;;5053237;28;20227;-63
2023/10/24 12:08:00;;;;;;;0.77;0.77;;;;;;;;;;5054010;28;20214;-63
2023/10/24 12:10:28;;;;;;;1.33;0.85;;;;;;;;;;5052558;28;20203;-64
2023/10/24 12:12:58;;;;;;;0.88;0.73;;;;;;;;;;5052206;28;20215;-63
2023/10/24 12:15:26;;;;;;;0.85;0.60;;;;;;;;;;5053325;28;20200;-63
2023/10/24 12:17:53;;;;;;;0.93;0.60;;;;;;;;;;5053923;28;20211;-63
2023/10/24 12:20:21;;;;;;;0.73;0.55;;;;;;;;;;5053709;28;20211;-63
2023/10/24 12:22:49;;;;;;;0.77;0.70;;;;;;;;;;5053819;28;20204;-63
2023/10/24 12:25:18;;;;;;;0.43;0.43;;;;;;;;;;5052131;28;20206;-63
2023/10/24 12:27:46;;;;;;;0.60;0.60;;;;;;;;;;5048570;28;20267;-63
2023/10/24 12:30:13;;;;;;;0.82;0.63;;;;;;;;;;5050898;28;20215;-63
2023/10/24 12:32:41;;;;;;;0.50;0.50;;;;;;;;;;5053242;28;20206;-63
2023/10/24 12:35:08;;;;;;;0.60;0.60;;;;;;;;;;5049882;28;20203;-63
2023/10/24 12:37:36;;;;;;;0.60;0.60;;;;;;;;;;5047915;28;20228;-68
2023/10/24 12:40:04;;;;;;;1.50;1.37;;;;;;;;;;5047891;28;20207;-69
2023/10/24 12:42:32;;;;;;;0.82;0.82;;;;;;;;;;5050520;28;20208;-69
2023/10/24 12:44:59;;;;;;;0.60;0.60;;;;;;;;;;5045267;28;20208;-69
2023/10/24 12:47:27;;;;;;;0.90;0.90;;;;;;;;;;5052012;28;20236;-69
2023/10/24 12:49:54;;;;;;;1.20;1.10;;;;;;;;;;5052880;28;20211;-69
2023/10/24 12:52:21;;;;;;;1.63;0.80;;;;;;;;;;5052633;28;20248;-69
2023/10/24 12:54:48;;;;;;;0.98;0.80;;;;;;;;;;5051659;28;20203;-68
2023/10/24 12:57:15;;;;;;;0.90;0.88;;;;;;;;;;5053313;28;20200;-68
2023/10/24 12:59:43;;;;;;;3.03;0.80;;;;;;;;;;5052837;28;20204;-68
2023/10/24 13:02:11;;;;;;;1.23;1.13;;;;;;;;;;5047754;28;20214;-68
2023/10/24 13:04:38;;;;;;;0.40;0.40;;;;;;;;;;5052007;28;20208;-68
2023/10/24 13:07:05;;;;;;;2.60;0.60;;;;;;;;;;5050686;28;20234;-68
2023/10/24 13:09:36;;;;;;;0.50;0.50;;;;;;;;;;5047142;28;20192;-68
2023/10/24 13:12:04;;;;;;;1.52;0.50;;;;;;;;;;5044823;28;20210;-68
2023/10/24 13:14:31;;;;;;;0.60;0.60;;;;;;;;;;5049216;28;20211;-68
2023/10/24 13:17:00;;;;;;;0.38;0.38;;;;;;;;;;5047275;28;20199;-68
2023/10/24 13:19:28;;;;;;;0.55;0.55;;;;;;;;;;5046055;28;20269;-68
2023/10/24 13:21:55;;;;;;;0.43;0.43;;;;;;;;;;5049715;28;20203;-68
2023/10/24 13:24:23;;;;;;;0.50;0.50;;;;;;;;;;5048144;28;20217;-68
2023/10/24 13:26:50;;;;;;;1.07;0.70;;;;;;;;;;5047064;28;20211;-69
2023/10/24 13:29:20;;;;;;;1.50;0.70;;;;;;;;;;5048780;28;20203;-68
2023/10/24 13:31:48;;;;;;;0.73;0.60;;;;;;;;;;5048917;28;20499;-68
2023/10/24 13:34:17;;;;;;;0.70;0.35;;;;;;;;;;5051512;28;20485;-68
2023/10/24 13:36:45;;;;;;;0.55;0.55;;;;;;;;;;5051225;28;20247;-68
2023/10/24 13:39:13;;;;;;;0.40;0.40;;;;;;;;;;5051619;28;20210;-69
2023/10/24 13:41:40;;;;;;;0.40;0.40;;;;;;;;;;5050245;28;20200;-69
2023/10/24 13:44:08;;;;;;;0.40;0.40;;;;;;;;;;5050153;28;20223;-69
2023/10/24 13:46:35;;;;;;;0.90;0.57;;;;;;;;;;5047877;28;20292;-69
2023/10/24 13:49:03;;;;;;;0.80;0.80;;;;;;;;;;5050787;28;20211;-69
2023/10/24 13:51:32;;;;;;;0.68;0.50;;;;;;;;;;5050144;28;20206;-69
2023/10/24 13:53:59;;;;;;;1.38;0.70;;;;;;;;;;5051199;28;20236;-68
2023/10/24 13:56:26;;;;;;;0.70;0.70;;;;;;;;;;5048721;28;20230;-69
2023/10/24 13:58:53;;;;;;;0.65;0.65;;;;;;;;;;5051674;28;20203;-69
2023/10/24 14:01:20;;;;;;;0.60;0.60;;;;;;;;;;5048970;28;20281;-68
2023/10/24 14:03:48;;;;;;;0.70;0.70;;;;;;;;;;5048017;28;20203;-68
2023/10/24 14:06:15;;;;;;;0.52;0.47;;;;;;;;;;5047331;28;20226;-69
2023/10/24 14:08:43;;;;;;;0.83;0.70;;;;;;;;;;5041260;28;20199;-68
2023/10/24 14:11:10;;;;;;;0.53;0.53;;;;;;;;;;5047050;28;20195;-69
2023/10/24 14:13:37;;;;;;;0.50;0.50;;;;;;;;;;5045805;28;20208;-68
2023/10/24 14:16:05;;;;;;;0.60;0.60;;;;;;;;;;5048337;28;20207;-69
2023/10/24 14:18:32;;;;;;;0.52;0.52;;;;;;;;;;5047616;28;20207;-68
2023/10/24 14:20:59;;;;;;;2.20;0.50;;;;;;;;;;5048093;28;20196;-68
2023/10/24 14:23:26;;;;;;;1.17;0.70;;;;;;;;;;5040415;28;20218;-68
2023/10/24 14:25:55;;;;;;;2.17;0.57;;;;;;;;;;5043574;28;20203;-72
2023/10/24 14:28:22;;;;;;;0.93;0.80;;;;;;;;;;5043291;28;20203;-69
2023/10/24 14:30:49;;;;;;;0.35;0.35;;;;;;;;;;5046320;28;20206;-70
2023/10/24 14:33:16;;;;;;;0.50;0.50;;;;;;;;;;5045973;28;20211;-72
2023/10/24 14:35:43;;;;;;;0.40;0.40;;;;;;;;;;5045287;28;20210;-71
2023/10/24 14:38:10;;;;;;;0.50;0.50;;;;;;;;;;5045209;28;20210;-71
2023/10/24 14:40:39;;;;;;;0.52;0.52;;;;;;;;;;5044809;28;20203;-69
2023/10/24 14:43:09;;;;;;;1.75;0.60;;;;;;;;;;5050183;28;20203;-68
2023/10/24 14:45:37;;;;;;;0.50;0.50;;;;;;;;;;5050692;28;20208;-68
2023/10/24 14:48:05;;;;;;;2.13;0.73;;;;;;;;;;5051006;28;20239;-68